createdAt,value
2022-12-08T00:03:12.963Z,94579.09
2022-12-08T00:08:33.422Z,94575.59
2022-12-08T00:13:37.502Z,94568.75
2022-12-08T00:18:40.247Z,94567.13
2022-12-08T00:23:43.026Z,94626.00
2022-12-08T00:28:47.261Z,94595.88
2022-12-08T00:33:50.015Z,94669.56
2022-12-08T00:38:52.768Z,94635.00
2022-12-08T00:43:56.821Z,94650.56
2022-12-08T00:48:59.554Z,94628.19
2022-12-08T00:54:02.467Z,94616.91
2022-12-08T00:59:07.683Z,94646.47
2022-12-08T01:04:15.427Z,95856.19
2022-12-08T01:09:18.855Z,94634.31
2022-12-08T01:14:22.958Z,94578.78
2022-12-08T01:19:25.702Z,95777.44
2022-12-08T01:24:28.621Z,96379.97
2022-12-08T01:29:32.754Z,95211.28
2022-12-08T01:34:35.593Z,94952.53
2022-12-08T01:39:38.364Z,94797.47
2022-12-08T01:45:04.507Z,94125.81
2022-12-08T01:50:08.496Z,94279.19
2022-12-08T01:55:15.696Z,94033.22
2022-12-08T02:00:21.933Z,94016.63
2022-12-08T02:05:28.675Z,94086.53
2022-12-08T02:10:34.409Z,93940.06
2022-12-08T02:15:44.250Z,93942.44
2022-12-08T02:20:54.718Z,93902.41
2022-12-08T02:26:28.312Z,93857.38
2022-12-08T02:31:38.227Z,93859.09
2022-12-08T02:36:49.820Z,93846.03
2022-12-08T02:41:55.911Z,94078.81
2022-12-08T02:47:00.970Z,93875.28
2022-12-08T02:52:29.416Z,93831.09
2022-12-08T02:57:39.744Z,93787.56
2022-12-08T03:02:54.043Z,93977.19
2022-12-08T03:08:02.356Z,93725.88
2022-12-08T03:13:09.187Z,93701.66
2022-12-08T03:18:14.623Z,93662.63
2022-12-08T03:23:20.025Z,93630.53
2022-12-08T03:28:22.844Z,93602.88
2022-12-08T03:33:27.985Z,93544.75
2022-12-08T03:38:39.866Z,93592.34
2022-12-08T03:43:42.619Z,93514.31
2022-12-08T03:48:45.385Z,93482.28
2022-12-08T03:53:49.670Z,93638.06
2022-12-08T03:58:52.735Z,93500.41
2022-12-08T04:03:55.533Z,93508.28
2022-12-08T04:09:00.353Z,93491.78
2022-12-08T04:14:03.103Z,93503.06
2022-12-08T04:19:05.829Z,93559.47
2022-12-08T04:24:10.339Z,93554.19
2022-12-08T04:29:13.206Z,93571.56
2022-12-08T04:34:15.963Z,93594.84
2022-12-08T04:39:20.125Z,93633.03
2022-12-08T04:44:22.874Z,93682.50
2022-12-08T04:49:25.635Z,93700.75
2022-12-08T04:54:29.789Z,93812.53
2022-12-08T04:59:32.676Z,93782.09
2022-12-08T05:04:35.557Z,93781.19
2022-12-08T05:09:39.672Z,93779.44
2022-12-08T05:14:42.427Z,93823.72
2022-12-08T05:19:45.447Z,93867.78
2022-12-08T05:24:49.589Z,93871.19
2022-12-08T05:29:52.338Z,93935.34
2022-12-08T05:34:55.053Z,93936.41
2022-12-08T05:39:59.158Z,93953.75
2022-12-08T05:45:01.924Z,93981.47
2022-12-08T05:50:05.477Z,94010.84
2022-12-08T05:55:11.379Z,94140.00
2022-12-08T06:00:15.295Z,94174.59
2022-12-08T06:05:18.294Z,94245.66
2022-12-08T06:10:22.474Z,94152.84
2022-12-08T06:15:26.297Z,94177.91
2022-12-08T06:20:29.078Z,94206.63
2022-12-08T06:25:33.197Z,94236.00
2022-12-08T06:30:35.984Z,94248.09
2022-12-08T06:35:38.723Z,94354.66
2022-12-08T06:40:42.900Z,94220.47
2022-12-08T06:45:45.681Z,94339.16
2022-12-08T06:50:48.482Z,94242.25
2022-12-08T06:55:59.682Z,94203.22
2022-12-08T07:01:07.690Z,94105.44
2022-12-08T07:06:14.629Z,94160.03
2022-12-08T07:11:22.045Z,94169.41
2022-12-08T07:16:25.562Z,94201.63
2022-12-08T07:21:28.319Z,94214.81
2022-12-08T07:26:32.432Z,94703.34
2022-12-08T07:31:35.188Z,94520.63
2022-12-08T07:36:37.947Z,94261.34
2022-12-08T07:41:42.084Z,94462.53
2022-12-08T07:46:44.899Z,94566.53
2022-12-08T07:51:47.777Z,94451.34
2022-12-08T07:56:51.851Z,94338.91
2022-12-08T08:02:20.900Z,93949.16
2022-12-08T08:07:17.339Z,93800.13
2022-12-08T08:12:36.735Z,93692.91
2022-12-08T08:17:40.252Z,94237.09
2022-12-08T08:22:43.028Z,94031.91
2022-12-08T08:27:48.195Z,94032.97
2022-12-08T08:32:52.270Z,94015.56
2022-12-08T08:37:55.023Z,94003.59
2022-12-08T08:42:59.121Z,94008.88
2022-12-08T08:48:02.154Z,93974.13
2022-12-08T08:53:04.882Z,93946.16
2022-12-08T08:58:09.018Z,93972.97
2022-12-08T09:03:13.163Z,94068.69
2022-12-08T09:08:16.578Z,94085.03
2022-12-08T09:13:20.835Z,94048.72
2022-12-08T09:18:23.615Z,93943.22
2022-12-08T09:23:29.437Z,93892.34
2022-12-08T09:28:38.427Z,93835.84
2022-12-08T09:33:41.216Z,93789.09
2022-12-08T09:38:43.979Z,93746.44
2022-12-08T09:43:57.006Z,93781.91
2022-12-08T09:49:00.838Z,93766.44
2022-12-08T09:54:12.576Z,93792.59
2022-12-08T09:59:24.990Z,93766.38
2022-12-08T10:04:32.237Z,93794.91
2022-12-08T10:09:40.662Z,93760.31
2022-12-08T10:14:47.341Z,93822.97
2022-12-08T10:19:50.758Z,94100.81
2022-12-08T10:24:57.289Z,93998.13
2022-12-08T10:30:01.683Z,93920.78
2022-12-08T10:35:08.102Z,93863.22
2022-12-08T10:40:13.178Z,93838.78
2022-12-08T10:45:24.459Z,93800.69
2022-12-08T10:50:32.393Z,93782.50
2022-12-08T10:55:41.873Z,93765.72
2022-12-08T11:00:46.104Z,93788.59
2022-12-08T11:05:49.026Z,93771.09
2022-12-08T11:10:51.916Z,93728.13
2022-12-08T11:15:57.136Z,93695.00
2022-12-08T11:21:07.676Z,93861.13
2022-12-08T11:26:19.333Z,93721.25
2022-12-08T11:31:29.192Z,93690.94
2022-12-08T11:36:34.138Z,93659.63
2022-12-08T11:41:39.136Z,93600.13
2022-12-08T11:46:49.015Z,93652.03
2022-12-08T11:51:54.699Z,93627.63
2022-12-08T11:56:59.480Z,93590.19
2022-12-08T12:02:04.818Z,93537.75
2022-12-08T12:07:47.422Z,93531.28
2022-12-08T12:13:00.273Z,93628.81
2022-12-08T12:18:05.482Z,93547.09
2022-12-08T12:23:13.899Z,93521.81
2022-12-08T12:28:18.882Z,93514.91
2022-12-08T12:33:24.021Z,93468.03
2022-12-08T12:38:46.133Z,93422.84
2022-12-08T12:44:10.578Z,93389.59
2022-12-08T12:49:50.839Z,93450.38
2022-12-08T12:55:26.749Z,93366.44
2022-12-08T13:00:30.847Z,93317.47
2022-12-08T13:05:36.757Z,93290.31
2022-12-08T13:10:40.690Z,93265.47
2022-12-08T13:15:50.142Z,93330.34
2022-12-08T13:20:54.321Z,93267.16
2022-12-08T13:26:16.466Z,93274.03
2022-12-08T13:31:38.108Z,93295.91
2022-12-08T13:36:44.595Z,93288.59
2022-12-08T13:41:54.646Z,93386.97
2022-12-08T13:57:56.424Z,93470.16
2022-12-08T14:03:01.806Z,93510.31
2022-12-08T14:08:07.564Z,93507.78
2022-12-08T14:13:12.610Z,93561.78
2022-12-08T14:18:26.339Z,93588.56
2022-12-08T14:23:29.116Z,93895.94
2022-12-08T14:28:32.412Z,93730.44
2022-12-08T14:33:36.558Z,93648.84
2022-12-08T14:38:39.410Z,93641.16
2022-12-08T14:43:43.040Z,93615.03
2022-12-08T14:48:47.324Z,93625.72
2022-12-08T14:53:54.751Z,93629.53
2022-12-08T14:59:06.771Z,93586.66
2022-12-08T15:04:20.202Z,93631.16
2022-12-08T15:09:36.244Z,93627.84
2022-12-08T15:14:42.277Z,93613.38
2022-12-08T15:19:56.543Z,93596.69
2022-12-08T15:24:59.464Z,93663.66
2022-12-08T15:30:02.435Z,93648.97
2022-12-08T15:35:09.105Z,93627.94
2022-12-08T15:40:18.023Z,93650.53
2022-12-08T15:45:28.693Z,93663.66
2022-12-08T15:50:32.905Z,93664.63
2022-12-08T15:55:39.034Z,93701.97
2022-12-08T16:00:52.973Z,93707.25
2022-12-08T16:06:44.288Z,93730.84
2022-12-08T16:12:05.139Z,93725.84
2022-12-08T16:17:03.464Z,93712.16
2022-12-08T16:28:00.152Z,93744.56
2022-12-08T16:32:55.492Z,93785.34
2022-12-08T16:37:59.619Z,93751.63
2022-12-08T16:43:02.376Z,93775.25
2022-12-08T16:48:05.533Z,93778.00
2022-12-08T16:53:12.231Z,93791.16
2022-12-08T16:58:15.018Z,93788.56
2022-12-08T17:03:18.842Z,93793.03
2022-12-08T17:08:23.069Z,93764.91
2022-12-08T17:13:25.968Z,93771.06
2022-12-08T17:18:28.741Z,93817.34
2022-12-08T17:23:32.821Z,93812.00
2022-12-08T17:28:59.484Z,93825.75
2022-12-08T17:33:59.242Z,93852.63
2022-12-08T17:39:03.382Z,93865.75
2022-12-08T17:44:11.846Z,93889.28
2022-12-08T17:49:18.353Z,93905.63
2022-12-08T17:54:22.843Z,93993.94
2022-12-08T17:59:26.283Z,93963.75
2022-12-08T18:04:29.600Z,94018.19
2022-12-08T18:09:34.139Z,93952.31
2022-12-08T18:14:36.878Z,93958.50
2022-12-08T18:19:39.638Z,93979.56
2022-12-08T18:24:44.701Z,93947.28
2022-12-08T18:29:47.606Z,93937.69
2022-12-08T18:34:50.502Z,94028.47
2022-12-08T18:39:54.641Z,93945.41
2022-12-08T18:45:02.663Z,93919.31
2022-12-08T18:50:06.942Z,93961.44
2022-12-08T18:55:12.276Z,93983.81
2022-12-08T19:00:17.298Z,94000.53
2022-12-08T19:05:20.175Z,93964.91
2022-12-08T19:10:24.489Z,93970.19
2022-12-08T19:15:27.431Z,93993.78
2022-12-08T19:20:31.378Z,93992.88
2022-12-08T19:25:35.473Z,94006.81
2022-12-08T19:30:38.278Z,94038.28
2022-12-08T19:35:41.098Z,93992.09
2022-12-08T19:41:03.795Z,94007.19
2022-12-08T19:46:06.981Z,93945.28
2022-12-08T19:51:10.041Z,94022.91
2022-12-08T19:56:14.133Z,93978.66
2022-12-08T20:01:17.245Z,93961.34
2022-12-08T20:06:20.265Z,93987.66
2022-12-08T20:11:24.392Z,94002.28
2022-12-08T20:16:27.372Z,94012.66
2022-12-08T20:21:30.257Z,94038.69
2022-12-08T20:26:34.427Z,94031.72
2022-12-08T20:31:37.370Z,94040.53
2022-12-08T20:36:40.181Z,94021.50
2022-12-08T20:41:45.240Z,94052.75
2022-12-08T20:46:49.776Z,94056.28
2022-12-08T20:51:52.670Z,94044.16
2022-12-08T20:56:56.999Z,94112.19
2022-12-08T21:02:00.381Z,94081.56
2022-12-08T21:07:03.716Z,94102.69
2022-12-08T21:12:08.190Z,94143.59
2022-12-08T21:17:11.207Z,94245.47
2022-12-08T21:22:14.321Z,94185.72
2022-12-08T21:27:18.507Z,94196.22
2022-12-08T21:32:25.643Z,94210.97
2022-12-08T21:37:31.730Z,94192.63
2022-12-08T21:42:46.844Z,94223.88
2022-12-08T21:47:50.825Z,94278.34
2022-12-08T21:52:53.803Z,94224.34
2022-12-08T21:58:00.891Z,94242.50
2022-12-08T22:03:04.247Z,94190.38
2022-12-08T22:08:07.452Z,94206.09
2022-12-08T22:13:11.689Z,94237.19
2022-12-08T22:18:14.685Z,94283.38
2022-12-08T22:23:17.895Z,94280.47
2022-12-08T22:28:22.253Z,94359.56
2022-12-08T22:33:25.234Z,94353.19
2022-12-08T22:38:28.479Z,94348.03
2022-12-08T22:43:33.335Z,94360.34
2022-12-08T22:48:36.291Z,94471.31
2022-12-08T22:53:39.327Z,94465.16
2022-12-08T22:58:44.118Z,94744.13
2022-12-08T23:03:47.023Z,94535.78
2022-12-08T23:08:50.385Z,94483.75
2022-12-08T23:13:55.944Z,94521.16
2022-12-08T23:18:59.776Z,94544.59
2022-12-08T23:24:02.684Z,94573.09
2022-12-08T23:29:06.970Z,94555.78
2022-12-08T23:34:10.438Z,94482.09
2022-12-08T23:39:13.239Z,94489.06
2022-12-08T23:44:17.727Z,94460.47
2022-12-08T23:49:21.272Z,94476.13
2022-12-08T23:54:24.317Z,94462.31
2022-12-08T23:59:28.411Z,94487.59
